Time;durP1;ratioP1;P1;durP2;ratioP2;P2;SDS_P1;SDS_P2;PMS_P1;PMS_P2;Temp;Humidity;BMP_temperature;BMP_pressure;BME280_temperature;BME280_humidity;BME280_pressure;Samples;Min_cycle;Max_cycle;Signal;HPM_P1;HPM_P2
2023/11/06 00:01:22;;;;;;;1.08;0.80;;;;;;;;;;5036591;28;20351;-65
2023/11/06 00:03:47;;;;;;;1.05;0.80;;;;;;;;;;5036814;28;20369;-61
2023/11/06 00:06:12;;;;;;;1.23;0.70;;;;;;;;;;5035003;28;20112;-64
2023/11/06 00:08:38;;;;;;;0.70;0.70;;;;;;;;;;5036757;28;20088;-64
2023/11/06 00:11:03;;;;;;;0.90;0.85;;;;;;;;;;5036702;28;20037;-64
2023/11/06 00:13:29;;;;;;;0.98;0.88;;;;;;;;;;5036665;28;20082;-64
2023/11/06 00:15:54;;;;;;;0.90;0.85;;;;;;;;;;5034827;28;20021;-64
2023/11/06 00:18:20;;;;;;;1.17;0.80;;;;;;;;;;5036205;28;20115;-65
2023/11/06 00:20:45;;;;;;;1.08;0.82;;;;;;;;;;5018563;28;20109;-64
2023/11/06 00:23:10;;;;;;;0.80;0.80;;;;;;;;;;5018720;28;20044;-64
2023/11/06 00:25:37;;;;;;;0.88;0.88;;;;;;;;;;5036079;28;20072;-61
2023/11/06 00:28:03;;;;;;;0.80;0.80;;;;;;;;;;5002412;28;20057;-61
2023/11/06 00:30:29;;;;;;;0.95;0.80;;;;;;;;;;5036150;28;20120;-61
2023/11/06 00:32:54;;;;;;;0.70;0.60;;;;;;;;;;5035778;28;20125;-60
2023/11/06 00:35:20;;;;;;;1.42;0.82;;;;;;;;;;5018503;28;20113;-61
2023/11/06 00:37:45;;;;;;;0.75;0.75;;;;;;;;;;5018531;28;20515;-61
2023/11/06 00:40:11;;;;;;;0.98;0.93;;;;;;;;;;5018178;28;20066;-60
2023/11/06 00:42:36;;;;;;;0.70;0.50;;;;;;;;;;5036046;28;20030;-60
2023/11/06 00:45:02;;;;;;;0.70;0.70;;;;;;;;;;5017984;28;20037;-61
2023/11/06 00:47:28;;;;;;;0.70;0.70;;;;;;;;;;5036337;28;20160;-60
2023/11/06 00:49:53;;;;;;;0.68;0.68;;;;;;;;;;5035202;28;20025;-60
2023/11/06 00:52:19;;;;;;;0.70;0.70;;;;;;;;;;5017933;28;20465;-60
2023/11/06 00:54:45;;;;;;;1.00;0.90;;;;;;;;;;5017930;28;20488;-60
2023/11/06 00:57:10;;;;;;;2.30;1.52;;;;;;;;;;5018284;28;20029;-61
2023/11/06 00:59:36;;;;;;;1.38;1.27;;;;;;;;;;5018161;28;20357;-63
2023/11/06 01:02:03;;;;;;;2.20;1.48;;;;;;;;;;5017763;28;20492;-64
2023/11/06 01:04:28;;;;;;;0.95;0.95;;;;;;;;;;5035537;28;20021;-64
2023/11/06 01:06:54;;;;;;;1.40;0.88;;;;;;;;;;5035473;28;20432;-64
2023/11/06 01:09:19;;;;;;;0.95;0.90;;;;;;;;;;5034009;28;20343;-61
2023/11/06 01:11:48;;;;;;;1.80;1.10;;;;;;;;;;5034306;28;20045;-61
2023/11/06 01:14:14;;;;;;;0.55;0.55;;;;;;;;;;5034997;28;20515;-62
2023/11/06 01:16:39;;;;;;;0.90;0.80;;;;;;;;;;5015794;28;20030;-61
2023/11/06 01:19:04;;;;;;;0.82;0.82;;;;;;;;;;4997846;28;20041;-62
2023/11/06 01:21:31;;;;;;;0.95;0.70;;;;;;;;;;5015404;28;20037;-61
2023/11/06 01:23:57;;;;;;;0.50;0.50;;;;;;;;;;4998066;28;20022;-62
2023/11/06 01:26:22;;;;;;;0.80;0.80;;;;;;;;;;5015227;28;20034;-61
2023/11/06 01:28:48;;;;;;;0.75;0.75;;;;;;;;;;5015475;28;20022;-62
2023/11/06 01:31:13;;;;;;;1.02;0.47;;;;;;;;;;5014978;28;20437;-62
2023/11/06 01:33:38;;;;;;;0.90;0.57;;;;;;;;;;4997418;28;20160;-62
2023/11/06 01:36:04;;;;;;;1.42;0.60;;;;;;;;;;4997439;28;20029;-65
2023/11/06 01:38:30;;;;;;;0.68;0.68;;;;;;;;;;5014966;28;20030;-65
2023/11/06 01:40:57;;;;;;;1.48;0.60;;;;;;;;;;5014842;28;20037;-65
2023/11/06 01:43:23;;;;;;;0.80;0.68;;;;;;;;;;5014929;28;20030;-65
2023/11/06 01:45:49;;;;;;;0.75;0.60;;;;;;;;;;4997444;28;20034;-63
2023/11/06 01:48:14;;;;;;;0.63;0.63;;;;;;;;;;4997201;28;20054;-63
2023/11/06 01:50:41;;;;;;;1.63;0.70;;;;;;;;;;4997449;28;20030;-63
2023/11/06 01:53:08;;;;;;;0.57;0.50;;;;;;;;;;4997221;28;20034;-63
2023/11/06 01:55:34;;;;;;;0.40;0.40;;;;;;;;;;5015147;28;20053;-64
2023/11/06 01:57:59;;;;;;;0.45;0.40;;;;;;;;;;4996933;28;20034;-64
2023/11/06 02:00:27;;;;;;;0.57;0.57;;;;;;;;;;4996863;28;20022;-64
2023/11/06 02:02:52;;;;;;;0.77;0.63;;;;;;;;;;4996218;28;20473;-64
2023/11/06 02:05:18;;;;;;;0.93;0.50;;;;;;;;;;5014719;28;20038;-64
2023/11/06 02:07:44;;;;;;;0.60;0.60;;;;;;;;;;4996674;28;20041;-60
2023/11/06 02:10:10;;;;;;;0.75;0.60;;;;;;;;;;5014994;28;20029;-60
2023/11/06 02:12:35;;;;;;;1.40;0.50;;;;;;;;;;4997107;28;20480;-65
2023/11/06 02:15:00;;;;;;;1.25;0.60;;;;;;;;;;5014286;28;20494;-66
2023/11/06 02:17:27;;;;;;;3.58;0.60;;;;;;;;;;4996831;28;20046;-66
2023/11/06 02:19:52;;;;;;;0.82;0.82;;;;;;;;;;4997285;28;20033;-67
2023/11/06 02:22:19;;;;;;;1.15;0.70;;;;;;;;;;4997059;28;20120;-62
2023/11/06 02:24:45;;;;;;;1.30;1.05;;;;;;;;;;5014394;28;20488;-62
2023/11/06 02:27:11;;;;;;;1.10;1.00;;;;;;;;;;4996839;28;20462;-64
2023/11/06 02:29:36;;;;;;;1.00;0.90;;;;;;;;;;5014461;28;20034;-61
2023/11/06 02:32:02;;;;;;;0.57;0.40;;;;;;;;;;4996747;28;20037;-61
2023/11/06 02:34:27;;;;;;;1.23;0.70;;;;;;;;;;5014420;28;20030;-60
2023/11/06 02:36:54;;;;;;;4.65;0.60;;;;;;;;;;5014174;28;20037;-64
2023/11/06 02:39:20;;;;;;;0.93;0.60;;;;;;;;;;5014429;28;20402;-64
2023/11/06 02:41:45;;;;;;;0.80;0.50;;;;;;;;;;4996456;28;20026;-62
2023/11/06 02:44:11;;;;;;;0.50;0.50;;;;;;;;;;4996581;28;20493;-61
2023/11/06 02:46:37;;;;;;;0.55;0.50;;;;;;;;;;5014517;28;20042;-62
2023/11/06 02:49:02;;;;;;;0.40;0.40;;;;;;;;;;4996618;28;20493;-61
2023/11/06 02:51:28;;;;;;;0.95;0.50;;;;;;;;;;4996242;28;20059;-61
2023/11/06 02:53:53;;;;;;;0.40;0.40;;;;;;;;;;5013935;28;20030;-61
2023/11/06 02:56:19;;;;;;;2.58;0.30;;;;;;;;;;5013794;28;20395;-61
2023/11/06 02:58:44;;;;;;;0.45;0.45;;;;;;;;;;5013888;28;20038;-61
2023/11/06 03:01:10;;;;;;;0.57;0.57;;;;;;;;;;4996829;28;20454;-61
2023/11/06 03:03:35;;;;;;;1.08;0.50;;;;;;;;;;5013883;28;20489;-61
2023/11/06 03:06:01;;;;;;;0.60;0.47;;;;;;;;;;5014059;28;20026;-61
2023/11/06 03:08:26;;;;;;;0.38;0.30;;;;;;;;;;5013832;28;20038;-61
2023/11/06 03:10:52;;;;;;;0.40;0.40;;;;;;;;;;5029025;28;20065;-61
2023/11/06 03:13:20;;;;;;;1.75;0.40;;;;;;;;;;4997552;28;20449;-63
2023/11/06 03:15:46;;;;;;;0.40;0.40;;;;;;;;;;5017617;28;20084;-64
2023/11/06 03:18:12;;;;;;;2.13;0.60;;;;;;;;;;5017243;28;20078;-64
2023/11/06 03:20:38;;;;;;;0.70;0.50;;;;;;;;;;5017755;28;20049;-64
2023/11/06 03:23:04;;;;;;;1.40;0.52;;;;;;;;;;4999660;28;20073;-64
2023/11/06 03:25:29;;;;;;;0.50;0.50;;;;;;;;;;5017415;28;20049;-64
2023/11/06 03:27:54;;;;;;;0.30;0.30;;;;;;;;;;5031671;23;20046;-66
2023/11/06 03:30:20;;;;;;;0.45;0.40;;;;;;;;;;5036937;28;20087;-61
2023/11/06 03:32:46;;;;;;;0.70;0.52;;;;;;;;;;5036192;23;20150;-61
2023/11/06 03:35:11;;;;;;;0.70;0.68;;;;;;;;;;4979974;28;20026;-65
2023/11/06 03:37:37;;;;;;;0.65;0.65;;;;;;;;;;4997492;28;20033;-65
2023/11/06 03:40:03;;;;;;;1.58;0.40;;;;;;;;;;4997697;28;20023;-65
2023/11/06 03:42:30;;;;;;;0.82;0.73;;;;;;;;;;4997496;28;20088;-65
2023/11/06 03:44:55;;;;;;;0.60;0.60;;;;;;;;;;4980421;28;20038;-65
2023/11/06 03:47:22;;;;;;;0.80;0.75;;;;;;;;;;4997519;28;20390;-64
2023/11/06 03:49:47;;;;;;;0.65;0.60;;;;;;;;;;4997917;28;20045;-64
2023/11/06 03:52:13;;;;;;;1.17;0.70;;;;;;;;;;4979519;28;20081;-64
2023/11/06 03:54:38;;;;;;;0.50;0.50;;;;;;;;;;4979829;28;20033;-64
2023/11/06 03:57:04;;;;;;;1.17;0.43;;;;;;;;;;4997431;28;20465;-64
2023/11/06 03:59:29;;;;;;;0.40;0.40;;;;;;;;;;4997414;28;20459;-63
2023/11/06 04:01:55;;;;;;;0.47;0.30;;;;;;;;;;4979605;28;20029;-63
2023/11/06 04:04:20;;;;;;;2.28;0.57;;;;;;;;;;4979541;28;20414;-63
2023/11/06 04:06:45;;;;;;;0.40;0.40;;;;;;;;;;4997447;28;20038;-64
2023/11/06 04:09:11;;;;;;;1.38;0.60;;;;;;;;;;4997324;28;20030;-64
2023/11/06 04:11:37;;;;;;;0.45;0.45;;;;;;;;;;4979256;28;20026;-64
2023/11/06 04:14:03;;;;;;;0.55;0.47;;;;;;;;;;4978926;28;20478;-70
2023/11/06 04:16:29;;;;;;;0.82;0.50;;;;;;;;;;4978951;28;20041;-65
2023/11/06 04:18:55;;;;;;;0.47;0.47;;;;;;;;;;4996847;28;20411;-65
2023/11/06 04:21:20;;;;;;;0.57;0.57;;;;;;;;;;4996748;28;20098;-65
2023/11/06 04:23:46;;;;;;;1.60;0.50;;;;;;;;;;4996549;28;20038;-65
2023/11/06 04:26:12;;;;;;;0.55;0.47;;;;;;;;;;4995525;28;20027;-65
2023/11/06 04:28:37;;;;;;;0.63;0.57;;;;;;;;;;4996960;28;20026;-65
2023/11/06 04:31:03;;;;;;;0.40;0.40;;;;;;;;;;4979598;28;20117;-66
2023/11/06 04:33:28;;;;;;;1.75;0.60;;;;;;;;;;4996459;28;20061;-65
2023/11/06 04:35:54;;;;;;;0.50;0.40;;;;;;;;;;4997055;28;20106;-65
2023/11/06 04:38:19;;;;;;;1.08;0.80;;;;;;;;;;4996317;28;20038;-64
2023/11/06 04:40:45;;;;;;;1.65;0.40;;;;;;;;;;4995973;28;20054;-67
2023/11/06 04:43:11;;;;;;;0.70;0.40;;;;;;;;;;4996213;28;20125;-67
2023/11/06 04:45:38;;;;;;;0.40;0.40;;;;;;;;;;4978675;28;20034;-67
2023/11/06 04:48:04;;;;;;;0.52;0.50;;;;;;;;;;4979258;28;20041;-67
2023/11/06 04:50:29;;;;;;;0.40;0.40;;;;;;;;;;4978838;28;20139;-66
2023/11/06 04:52:55;;;;;;;0.95;0.40;;;;;;;;;;4977971;28;20467;-66
2023/11/06 04:55:20;;;;;;;0.50;0.50;;;;;;;;;;4995172;28;20026;-65
2023/11/06 04:57:46;;;;;;;2.00;0.45;;;;;;;;;;4995999;28;20057;-65
2023/11/06 05:00:12;;;;;;;0.50;0.40;;;;;;;;;;4978867;28;20133;-65
2023/11/06 05:02:37;;;;;;;0.77;0.60;;;;;;;;;;4995525;28;20056;-64
2023/11/06 05:05:04;;;;;;;0.50;0.40;;;;;;;;;;4962047;28;20063;-66
2023/11/06 05:07:30;;;;;;;0.50;0.50;;;;;;;;;;4995552;28;20513;-66
2023/11/06 05:09:55;;;;;;;0.47;0.47;;;;;;;;;;4994829;28;20049;-66
2023/11/06 05:12:20;;;;;;;0.50;0.50;;;;;;;;;;4994779;28;20030;-66
2023/11/06 05:14:46;;;;;;;0.70;0.70;;;;;;;;;;4977466;28;20006;-66
2023/11/06 05:17:11;;;;;;;0.70;0.70;;;;;;;;;;4994566;28;20366;-66
2023/11/06 05:19:41;;;;;;;0.73;0.73;;;;;;;;;;4993825;28;20038;-66
2023/11/06 05:22:07;;;;;;;1.30;0.70;;;;;;;;;;4993809;28;20406;-66
2023/11/06 05:24:33;;;;;;;0.47;0.47;;;;;;;;;;4994978;28;20517;-67
2023/11/06 05:27:00;;;;;;;0.65;0.65;;;;;;;;;;4978104;28;20058;-67
2023/11/06 05:29:25;;;;;;;2.83;0.60;;;;;;;;;;4995629;28;20080;-67
2023/11/06 05:31:51;;;;;;;0.93;0.65;;;;;;;;;;4977917;28;20493;-67
2023/11/06 05:34:16;;;;;;;0.77;0.52;;;;;;;;;;4977845;28;20038;-67
2023/11/06 05:36:42;;;;;;;0.80;0.70;;;;;;;;;;4995638;28;20037;-67
2023/11/06 05:39:11;;;;;;;0.73;0.57;;;;;;;;;;4995468;28;20100;-66
2023/11/06 05:41:36;;;;;;;0.60;0.60;;;;;;;;;;4995406;28;20031;-67
2023/11/06 05:44:02;;;;;;;0.80;0.80;;;;;;;;;;4977704;28;20389;-67
2023/11/06 05:46:27;;;;;;;0.70;0.70;;;;;;;;;;4977637;28;20475;-66
2023/11/06 05:48:53;;;;;;;0.77;0.50;;;;;;;;;;4995651;28;20030;-67
2023/11/06 05:51:18;;;;;;;0.73;0.70;;;;;;;;;;4961474;28;20030;-66
2023/11/06 05:53:43;;;;;;;0.57;0.55;;;;;;;;;;4995254;28;20046;-66
2023/11/06 05:56:09;;;;;;;0.68;0.68;;;;;;;;;;4977261;28;20102;-66
2023/11/06 05:58:34;;;;;;;1.17;0.60;;;;;;;;;;4995271;28;20026;-66
2023/11/06 06:01:01;;;;;;;3.67;0.73;;;;;;;;;;4995370;28;20451;-66
2023/11/06 06:03:27;;;;;;;1.23;0.80;;;;;;;;;;4994820;28;20031;-66
2023/11/06 06:05:52;;;;;;;1.05;0.50;;;;;;;;;;4976987;28;20367;-66
2023/11/06 06:08:19;;;;;;;0.85;0.63;;;;;;;;;;4994329;28;20030;-66
2023/11/06 06:10:45;;;;;;;0.90;0.60;;;;;;;;;;4994381;28;20419;-66
2023/11/06 06:13:11;;;;;;;1.13;0.70;;;;;;;;;;4994277;28;20121;-67
2023/11/06 06:15:36;;;;;;;0.30;0.30;;;;;;;;;;4994358;28;20030;-67
2023/11/06 06:18:01;;;;;;;0.60;0.60;;;;;;;;;;4993880;28;20029;-66
2023/11/06 06:20:27;;;;;;;1.13;1.08;;;;;;;;;;4993804;28;20072;-66
2023/11/06 06:22:52;;;;;;;0.90;0.80;;;;;;;;;;4976731;28;20034;-66
2023/11/06 06:25:18;;;;;;;1.45;0.70;;;;;;;;;;4994458;28;20030;-67
2023/11/06 06:27:43;;;;;;;0.77;0.70;;;;;;;;;;4994307;28;20542;-66
2023/11/06 06:30:09;;;;;;;1.40;1.10;;;;;;;;;;4994817;28;20030;-66
2023/11/06 06:32:35;;;;;;;1.33;1.00;;;;;;;;;;4994272;28;20034;-66
2023/11/06 06:35:02;;;;;;;0.52;0.52;;;;;;;;;;4994108;28;20056;-66
2023/11/06 06:37:28;;;;;;;0.85;0.65;;;;;;;;;;4975696;28;20033;-66
2023/11/06 06:39:53;;;;;;;1.02;0.80;;;;;;;;;;4993788;28;20026;-66
2023/11/06 06:42:18;;;;;;;1.25;0.70;;;;;;;;;;4993421;28;20026;-66
2023/11/06 06:44:44;;;;;;;0.40;0.40;;;;;;;;;;4993349;28;20117;-66
2023/11/06 06:47:09;;;;;;;1.65;0.80;;;;;;;;;;4992968;28;20397;-66
2023/11/06 06:49:39;;;;;;;3.30;0.68;;;;;;;;;;4992282;28;20033;-66
2023/11/06 06:52:08;;;;;;;2.55;0.70;;;;;;;;;;4975107;28;20030;-65
2023/11/06 06:54:34;;;;;;;1.05;0.68;;;;;;;;;;4992624;28;20080;-65
2023/11/06 06:56:59;;;;;;;5.55;0.98;;;;;;;;;;4975831;28;20498;-65
2023/11/06 06:59:26;;;;;;;2.33;1.20;;;;;;;;;;4993282;28;20023;-65
2023/11/06 07:01:51;;;;;;;1.25;1.00;;;;;;;;;;4993902;28;20031;-66
2023/11/06 07:04:17;;;;;;;1.48;0.98;;;;;;;;;;4976598;28;20041;-66
2023/11/06 07:06:42;;;;;;;1.63;0.70;;;;;;;;;;4994053;28;20062;-66
2023/11/06 07:09:08;;;;;;;0.50;0.50;;;;;;;;;;4976581;28;20053;-66
2023/11/06 07:11:35;;;;;;;0.80;0.60;;;;;;;;;;4994540;28;20061;-65
2023/11/06 07:14:01;;;;;;;1.38;1.02;;;;;;;;;;4994433;28;20455;-65
2023/11/06 07:16:26;;;;;;;0.68;0.63;;;;;;;;;;4993938;28;20050;-66
2023/11/06 07:18:52;;;;;;;1.05;0.70;;;;;;;;;;4976519;28;20453;-66
2023/11/06 07:21:17;;;;;;;0.73;0.60;;;;;;;;;;4994170;28;20029;-66
2023/11/06 07:23:43;;;;;;;0.82;0.82;;;;;;;;;;4993907;28;20379;-66
2023/11/06 07:26:09;;;;;;;4.00;0.82;;;;;;;;;;4976496;28;20036;-66
2023/11/06 07:28:34;;;;;;;1.67;0.65;;;;;;;;;;4993787;28;20030;-66
2023/11/06 07:30:59;;;;;;;2.88;0.60;;;;;;;;;;4976384;28;20461;-65
2023/11/06 07:33:25;;;;;;;1.58;0.70;;;;;;;;;;4993704;28;20121;-65
2023/11/06 07:35:52;;;;;;;2.28;0.88;;;;;;;;;;4993785;28;20055;-65
2023/11/06 07:38:17;;;;;;;1.75;0.80;;;;;;;;;;4993731;28;20089;-65
2023/11/06 07:40:43;;;;;;;1.13;0.70;;;;;;;;;;4994284;28;20030;-65
2023/11/06 07:43:08;;;;;;;0.90;0.70;;;;;;;;;;4976502;28;20034;-66
2023/11/06 07:45:34;;;;;;;1.48;0.43;;;;;;;;;;4976226;28;20092;-65
2023/11/06 07:48:03;;;;;;;1.23;0.47;;;;;;;;;;4993923;28;20034;-66
2023/11/06 07:50:34;;;;;;;1.35;0.60;;;;;;;;;;4993898;28;20042;-66
2023/11/06 07:53:00;;;;;;;0.80;0.50;;;;;;;;;;4993569;28;20038;-66
2023/11/06 07:55:25;;;;;;;0.60;0.60;;;;;;;;;;4993865;28;20110;-66
2023/11/06 07:57:51;;;;;;;0.60;0.57;;;;;;;;;;4993588;28;20150;-66
2023/11/06 08:00:16;;;;;;;0.70;0.63;;;;;;;;;;4977194;28;20030;-66
2023/11/06 08:02:42;;;;;;;0.25;0.25;;;;;;;;;;4997291;28;20030;-66
2023/11/06 08:05:10;;;;;;;0.82;0.63;;;;;;;;;;4979459;28;20042;-66
2023/11/06 08:07:36;;;;;;;0.55;0.55;;;;;;;;;;4997198;28;20034;-66
2023/11/06 08:10:03;;;;;;;0.70;0.50;;;;;;;;;;4997161;28;20080;-66
2023/11/06 08:12:29;;;;;;;0.43;0.40;;;;;;;;;;4979850;28;20034;-66
2023/11/06 08:14:55;;;;;;;1.50;0.82;;;;;;;;;;4996777;28;20038;-65
2023/11/06 08:17:20;;;;;;;0.57;0.57;;;;;;;;;;4996759;28;20034;-65
2023/11/06 08:19:46;;;;;;;1.00;0.60;;;;;;;;;;4996724;28;20029;-65
2023/11/06 08:22:11;;;;;;;1.05;0.50;;;;;;;;;;4996653;28;20180;-65
2023/11/06 08:24:41;;;;;;;0.57;0.47;;;;;;;;;;4996648;28;20065;-66
2023/11/06 08:27:06;;;;;;;0.35;0.35;;;;;;;;;;4996847;28;20026;-66
2023/11/06 08:29:33;;;;;;;0.55;0.55;;;;;;;;;;4996528;28;20040;-65
2023/11/06 08:31:59;;;;;;;0.65;0.40;;;;;;;;;;4996962;28;20034;-65
2023/11/06 08:34:25;;;;;;;1.02;0.60;;;;;;;;;;4996893;28;20482;-65
2023/11/06 08:36:50;;;;;;;0.40;0.40;;;;;;;;;;4996703;28;20113;-66
2023/11/06 08:39:17;;;;;;;2.08;0.65;;;;;;;;;;4996887;28;20015;-65
2023/11/06 08:41:43;;;;;;;0.82;0.63;;;;;;;;;;4996626;28;20058;-65
2023/11/06 08:44:09;;;;;;;0.90;0.68;;;;;;;;;;5007733;23;20481;-61
2023/11/06 08:46:34;;;;;;;0.65;0.38;;;;;;;;;;5006060;23;21184;-65
2023/11/06 08:48:59;;;;;;;0.63;0.55;;;;;;;;;;4996156;28;20110;-61
2023/11/06 08:51:25;;;;;;;0.57;0.47;;;;;;;;;;4996117;28;20536;-61
2023/11/06 08:53:50;;;;;;;0.60;0.60;;;;;;;;;;4978754;28;20070;-62
2023/11/06 08:56:20;;;;;;;1.02;0.57;;;;;;;;;;4996048;28;20038;-61
2023/11/06 08:58:45;;;;;;;0.90;0.77;;;;;;;;;;4978768;28;20038;-61
2023/11/06 09:01:11;;;;;;;1.00;0.47;;;;;;;;;;4978614;28;20014;-61
2023/11/06 09:03:38;;;;;;;0.40;0.40;;;;;;;;;;4996020;28;20041;-61
2023/11/06 09:06:03;;;;;;;0.60;0.45;;;;;;;;;;4978420;28;20042;-61
2023/11/06 09:08:29;;;;;;;0.40;0.40;;;;;;;;;;4995853;28;20042;-61
2023/11/06 09:10:54;;;;;;;0.52;0.52;;;;;;;;;;4977775;28;20027;-61
2023/11/06 09:13:19;;;;;;;3.08;1.10;;;;;;;;;;4995594;28;20058;-61
2023/11/06 09:15:46;;;;;;;0.50;0.50;;;;;;;;;;4995653;28;20038;-61
2023/11/06 09:18:11;;;;;;;0.70;0.68;;;;;;;;;;4995600;28;20034;-61
2023/11/06 09:20:38;;;;;;;0.60;0.50;;;;;;;;;;4995509;28;20025;-61
2023/11/06 09:23:06;;;;;;;0.88;0.70;;;;;;;;;;4995834;28;20117;-61
2023/11/06 09:25:32;;;;;;;0.98;0.80;;;;;;;;;;4995464;28;20030;-61
2023/11/06 09:27:57;;;;;;;2.22;0.50;;;;;;;;;;4995392;28;20026;-61
2023/11/06 09:30:23;;;;;;;0.60;0.47;;;;;;;;;;4977927;28;20121;-61
2023/11/06 09:32:49;;;;;;;0.95;0.80;;;;;;;;;;4978248;28;20035;-61
2023/11/06 09:35:15;;;;;;;1.00;0.68;;;;;;;;;;4977836;28;20037;-61
2023/11/06 09:37:41;;;;;;;1.25;0.80;;;;;;;;;;4995173;28;20035;-61
2023/11/06 09:40:11;;;;;;;0.50;0.40;;;;;;;;;;4995134;28;20029;-61
2023/11/06 09:42:37;;;;;;;2.13;0.68;;;;;;;;;;4977654;28;20516;-62
2023/11/06 09:45:03;;;;;;;1.95;0.60;;;;;;;;;;4995099;28;20145;-61
2023/11/06 09:47:28;;;;;;;0.93;0.73;;;;;;;;;;4994867;28;20050;-61
2023/11/06 09:49:54;;;;;;;1.17;0.60;;;;;;;;;;4995015;28;20386;-61
2023/11/06 09:52:19;;;;;;;0.80;0.63;;;;;;;;;;4994901;28;20038;-61
2023/11/06 09:54:47;;;;;;;1.00;0.60;;;;;;;;;;4977471;28;20030;-61
2023/11/06 09:57:13;;;;;;;1.50;0.70;;;;;;;;;;4994872;28;20022;-61
2023/11/06 09:59:40;;;;;;;1.38;0.52;;;;;;;;;;4994775;28;20382;-61
2023/11/06 10:02:05;;;;;;;0.43;0.43;;;;;;;;;;4994788;28;20057;-61
2023/11/06 10:04:32;;;;;;;1.52;0.52;;;;;;;;;;4994854;28;20069;-61
2023/11/06 10:06:58;;;;;;;1.05;0.80;;;;;;;;;;4994744;28;20037;-61
2023/11/06 10:09:24;;;;;;;2.13;0.70;;;;;;;;;;4994702;28;20018;-62
2023/11/06 10:11:50;;;;;;;0.82;0.50;;;;;;;;;;4977165;28;20483;-61
2023/11/06 10:14:16;;;;;;;1.92;0.75;;;;;;;;;;4994672;28;20474;-61
2023/11/06 10:16:41;;;;;;;1.35;0.50;;;;;;;;;;4994498;28;20492;-61
2023/11/06 10:19:13;;;;;;;1.33;0.80;;;;;;;;;;4994511;28;20014;-61
2023/11/06 10:21:41;;;;;;;0.60;0.60;;;;;;;;;;4994700;28;20030;-61
2023/11/06 10:24:07;;;;;;;0.45;0.45;;;;;;;;;;4976265;28;20026;-61
2023/11/06 10:26:33;;;;;;;2.08;0.80;;;;;;;;;;4994421;28;20421;-61
2023/11/06 10:29:17;;;;;;;1.30;0.70;;;;;;;;;;4994371;28;20037;-61
2023/11/06 10:31:47;;;;;;;1.00;0.57;;;;;;;;;;4977048;28;20402;-61
2023/11/06 10:34:29;;;;;;;0.63;0.63;;;;;;;;;;4994291;28;20042;-61
2023/11/06 10:37:00;;;;;;;0.95;0.60;;;;;;;;;;4994528;28;20038;-61
2023/11/06 10:39:25;;;;;;;0.40;0.40;;;;;;;;;;4994492;28;20041;-61
2023/11/06 10:41:59;;;;;;;0.50;0.40;;;;;;;;;;4994296;28;20045;-62
2023/11/06 10:44:24;;;;;;;0.47;0.47;;;;;;;;;;4994257;28;20022;-61
2023/11/06 10:46:50;;;;;;;0.30;0.30;;;;;;;;;;4994038;28;20044;-61
2023/11/06 10:49:21;;;;;;;0.60;0.50;;;;;;;;;;4994172;28;20045;-61
2023/11/06 10:51:47;;;;;;;0.57;0.57;;;;;;;;;;4994145;28;20120;-62
2023/11/06 10:54:14;;;;;;;1.75;0.70;;;;;;;;;;4976805;28;20498;-61
2023/11/06 10:56:40;;;;;;;1.05;0.45;;;;;;;;;;4994145;28;20045;-61
2023/11/06 10:59:07;;;;;;;0.70;0.70;;;;;;;;;;4994117;28;20038;-62
2023/11/06 11:01:37;;;;;;;1.63;0.70;;;;;;;;;;4994037;28;20113;-61
2023/11/06 11:04:03;;;;;;;0.40;0.40;;;;;;;;;;4994153;28;20044;-61
2023/11/06 11:06:31;;;;;;;0.77;0.60;;;;;;;;;;4994012;28;20030;-61
2023/11/06 11:08:57;;;;;;;0.60;0.52;;;;;;;;;;4976515;28;20038;-60
2023/11/06 11:11:23;;;;;;;0.30;0.30;;;;;;;;;;4994007;28;20027;-61
2023/11/06 11:13:50;;;;;;;2.45;0.70;;;;;;;;;;4976620;28;20486;-61
2023/11/06 11:16:34;;;;;;;1.15;0.88;;;;;;;;;;4993962;28;20034;-61
2023/11/06 11:19:31;;;;;;;0.40;0.40;;;;;;;;;;4994133;28;20026;-61
2023/11/06 11:22:19;;;;;;;0.50;0.30;;;;;;;;;;4977696;28;20030;-61
2023/11/06 11:24:50;;;;;;;0.20;0.20;;;;;;;;;;4976059;28;20165;-62
2023/11/06 11:27:31;;;;;;;1.60;0.77;;;;;;;;;;4976614;28;20026;-62
2023/11/06 11:29:59;;;;;;;1.08;0.57;;;;;;;;;;4976762;28;20031;-62
2023/11/06 11:32:36;;;;;;;1.92;0.98;;;;;;;;;;4976303;28;20031;-62
2023/11/06 11:35:15;;;;;;;1.83;0.63;;;;;;;;;;4963717;28;20030;-62
2023/11/06 11:37:40;;;;;;;0.75;0.40;;;;;;;;;;4997472;28;20143;-62
2023/11/06 11:40:07;;;;;;;2.30;0.60;;;;;;;;;;4997423;28;20513;-62
2023/11/06 11:42:33;;;;;;;2.03;0.77;;;;;;;;;;4997431;28;20113;-62
2023/11/06 11:44:59;;;;;;;0.30;0.30;;;;;;;;;;4997393;28;20077;-63
2023/11/06 11:47:28;;;;;;;0.50;0.50;;;;;;;;;;4997392;28;20038;-61
2023/11/06 11:49:53;;;;;;;0.95;0.90;;;;;;;;;;4963685;28;20041;-61
2023/11/06 11:52:19;;;;;;;0.93;0.47;;;;;;;;;;4997115;28;20034;-61
2023/11/06 11:54:45;;;;;;;0.75;0.52;;;;;;;;;;4979692;28;20049;-61
2023/11/06 11:57:11;;;;;;;1.10;0.75;;;;;;;;;;4979704;28;20398;-61
2023/11/06 11:59:47;;;;;;;1.15;0.70;;;;;;;;;;4997065;28;20042;-61
2023/11/06 12:02:36;;;;;;;1.23;0.68;;;;;;;;;;4997053;28;20037;-61
2023/11/06 12:05:14;;;;;;;0.45;0.35;;;;;;;;;;4997106;28;20062;-61
2023/11/06 12:07:43;;;;;;;0.77;0.70;;;;;;;;;;4996813;28;20041;-61
2023/11/06 12:10:09;;;;;;;1.65;0.73;;;;;;;;;;4996948;28;20032;-61
2023/11/06 12:12:35;;;;;;;0.75;0.50;;;;;;;;;;4979568;28;20422;-62
2023/11/06 12:15:02;;;;;;;0.57;0.50;;;;;;;;;;4997218;28;20054;-62
2023/11/06 12:17:36;;;;;;;0.60;0.60;;;;;;;;;;4996722;28;20069;-62
2023/11/06 12:20:08;;;;;;;2.72;0.80;;;;;;;;;;4996663;28;20038;-62
2023/11/06 12:22:43;;;;;;;1.35;0.63;;;;;;;;;;4996669;28;20034;-62
2023/11/06 12:25:08;;;;;;;0.95;0.75;;;;;;;;;;4979149;28;20081;-62
2023/11/06 12:27:35;;;;;;;1.85;0.55;;;;;;;;;;4996575;28;20105;-62
2023/11/06 12:30:07;;;;;;;0.65;0.50;;;;;;;;;;4996505;28;20038;-62
2023/11/06 12:32:34;;;;;;;0.60;0.43;;;;;;;;;;4996298;28;20028;-62
2023/11/06 12:35:14;;;;;;;1.50;0.60;;;;;;;;;;4996404;28;20030;-62
2023/11/06 12:37:45;;;;;;;1.60;0.80;;;;;;;;;;4996483;28;20076;-62
2023/11/06 12:40:15;;;;;;;0.65;0.65;;;;;;;;;;4979035;28;20030;-61
2023/11/06 12:42:41;;;;;;;0.35;0.35;;;;;;;;;;4978789;28;20398;-62
2023/11/06 12:45:23;;;;;;;0.20;0.20;;;;;;;;;;4995853;28;20080;-62
2023/11/06 12:47:50;;;;;;;1.23;0.55;;;;;;;;;;4978420;28;20057;-62
2023/11/06 12:50:17;;;;;;;0.40;0.40;;;;;;;;;;4996196;28;20034;-62
2023/11/06 12:52:42;;;;;;;0.45;0.45;;;;;;;;;;4996016;28;20038;-61
2023/11/06 12:55:10;;;;;;;1.90;0.73;;;;;;;;;;4996082;28;20026;-62
2023/11/06 12:57:37;;;;;;;0.40;0.30;;;;;;;;;;4996043;28;20035;-62
2023/11/06 13:00:05;;;;;;;1.10;0.60;;;;;;;;;;4978716;28;20053;-62
2023/11/06 13:02:32;;;;;;;2.03;0.73;;;;;;;;;;4995927;28;20030;-62
2023/11/06 13:04:58;;;;;;;1.00;0.65;;;;;;;;;;4995916;28;20045;-62
2023/11/06 13:07:23;;;;;;;1.50;0.60;;;;;;;;;;4995903;28;20026;-62
2023/11/06 13:09:49;;;;;;;0.50;0.50;;;;;;;;;;4978939;28;20034;-62
2023/11/06 13:12:14;;;;;;;0.65;0.60;;;;;;;;;;4978207;28;20391;-62
2023/11/06 13:14:39;;;;;;;0.98;0.70;;;;;;;;;;4995766;28;20014;-61
2023/11/06 13:17:07;;;;;;;0.50;0.50;;;;;;;;;;4995767;28;20030;-61
2023/11/06 13:19:32;;;;;;;0.88;0.52;;;;;;;;;;4995783;28;20030;-62
2023/11/06 13:21:58;;;;;;;0.75;0.70;;;;;;;;;;4995567;28;20031;-62
2023/11/06 13:24:25;;;;;;;0.93;0.60;;;;;;;;;;4995419;28;20027;-62
2023/11/06 13:26:53;;;;;;;0.63;0.57;;;;;;;;;;4995415;28;20034;-62
2023/11/06 13:29:19;;;;;;;0.70;0.60;;;;;;;;;;4995450;28;20081;-62
2023/11/06 13:31:45;;;;;;;0.75;0.63;;;;;;;;;;4995345;28;20037;-62
2023/11/06 13:34:11;;;;;;;0.75;0.45;;;;;;;;;;4995264;28;20030;-62
2023/11/06 13:36:42;;;;;;;0.60;0.60;;;;;;;;;;4993085;28;20470;-59
2023/11/06 13:39:09;;;;;;;0.90;0.40;;;;;;;;;;4976052;28;20470;-62
2023/11/06 13:41:39;;;;;;;1.48;0.65;;;;;;;;;;4993871;28;20042;-59
2023/11/06 13:44:09;;;;;;;0.63;0.60;;;;;;;;;;4993148;28;20101;-62
2023/11/06 13:46:34;;;;;;;0.95;0.70;;;;;;;;;;4972732;28;20070;-62
2023/11/06 13:49:00;;;;;;;0.60;0.60;;;;;;;;;;4974453;28;20526;-62
2023/11/06 13:51:26;;;;;;;0.70;0.70;;;;;;;;;;4974182;28;20091;-62
2023/11/06 13:53:51;;;;;;;1.08;0.73;;;;;;;;;;4974502;28;20046;-63
2023/11/06 13:56:29;;;;;;;1.38;0.73;;;;;;;;;;4975037;28;20049;-66
2023/11/06 13:58:54;;;;;;;0.90;0.70;;;;;;;;;;4974313;28;20033;-66
2023/11/06 14:01:29;;;;;;;1.75;0.70;;;;;;;;;;4974274;28;20023;-66
2023/11/06 14:03:54;;;;;;;1.00;0.77;;;;;;;;;;4972892;28;20065;-66
2023/11/06 14:06:21;;;;;;;1.08;0.75;;;;;;;;;;4973863;28;20419;-66
2023/11/06 14:08:47;;;;;;;1.02;0.88;;;;;;;;;;4973395;28;20046;-66
2023/11/06 14:11:13;;;;;;;1.00;0.90;;;;;;;;;;4974190;28;20030;-66
2023/11/06 14:13:39;;;;;;;2.20;1.25;;;;;;;;;;4974556;28;20047;-62
2023/11/06 14:16:06;;;;;;;1.08;0.90;;;;;;;;;;4975008;28;20034;-62
2023/11/06 14:18:31;;;;;;;1.77;0.95;;;;;;;;;;4974817;28;20043;-62
2023/11/06 14:20:57;;;;;;;1.95;0.88;;;;;;;;;;4974342;28;20394;-62
2023/11/06 14:23:25;;;;;;;1.35;0.90;;;;;;;;;;4975056;28;20458;-62
2023/11/06 14:25:52;;;;;;;1.45;0.85;;;;;;;;;;4973922;28;20363;-62
2023/11/06 14:28:18;;;;;;;1.70;0.98;;;;;;;;;;4971386;28;20077;-66
2023/11/06 14:30:44;;;;;;;1.38;0.88;;;;;;;;;;4972694;28;20027;-66
2023/11/06 14:33:09;;;;;;;3.13;0.85;;;;;;;;;;4972837;28;20119;-66
2023/11/06 14:35:36;;;;;;;0.85;0.80;;;;;;;;;;5004093;28;20055;-66
2023/11/06 14:38:05;;;;;;;1.63;1.23;;;;;;;;;;4972538;28;20231;-67
2023/11/06 14:40:30;;;;;;;1.17;0.73;;;;;;;;;;4973848;28;20448;-64